sensor_id;sensor_type;location;lat;lon;timestamp;P1;durP1;ratioP1;P2;durP2;ratioP2
33864;SDS011;20159;51.072;13.526;2023-06-26T00:00:33;6.05;;;5.43;;
33864;SDS011;20159;51.072;13.526;2023-06-26T00:02:59;7.43;;;5.88;;
33864;SDS011;20159;51.072;13.526;2023-06-26T00:05:25;6.25;;;5.65;;
33864;SDS011;20159;51.072;13.526;2023-06-26T00:07:52;7.15;;;5.70;;
33864;SDS011;20159;51.072;13.526;2023-06-26T00:10:18;7.45;;;5.63;;
33864;SDS011;20159;51.072;13.526;2023-06-26T00:12:43;6.55;;;5.22;;
33864;SDS011;20159;51.072;13.526;2023-06-26T00:15:09;9.20;;;5.90;;
33864;SDS011;20159;51.072;13.526;2023-06-26T00:17:35;7.63;;;5.28;;
33864;SDS011;20159;51.072;13.526;2023-06-26T00:20:05;5.75;;;5.25;;
33864;SDS011;20159;51.072;13.526;2023-06-26T00:22:31;6.45;;;5.43;;
33864;SDS011;20159;51.072;13.526;2023-06-26T00:24:56;5.97;;;5.38;;
33864;SDS011;20159;51.072;13.526;2023-06-26T00:27:22;6.63;;;6.00;;
33864;SDS011;20159;51.072;13.526;2023-06-26T00:29:48;7.80;;;5.32;;
33864;SDS011;20159;51.072;13.526;2023-06-26T00:32:13;6.25;;;5.18;;
33864;SDS011;20159;51.072;13.526;2023-06-26T00:34:39;6.63;;;5.38;;
33864;SDS011;20159;51.072;13.526;2023-06-26T00:37:05;7.93;;;5.55;;
33864;SDS011;20159;51.072;13.526;2023-06-26T00:39:30;7.43;;;5.35;;
33864;SDS011;20159;51.072;13.526;2023-06-26T00:41:56;5.88;;;5.30;;
33864;SDS011;20159;51.072;13.526;2023-06-26T00:44:21;6.43;;;5.32;;
33864;SDS011;20159;51.072;13.526;2023-06-26T00:46:47;6.75;;;6.00;;
33864;SDS011;20159;51.072;13.526;2023-06-26T00:49:13;7.35;;;5.05;;
33864;SDS011;20159;51.072;13.526;2023-06-26T00:51:39;7.25;;;5.05;;
33864;SDS011;20159;51.072;13.526;2023-06-26T00:54:05;8.27;;;5.50;;
33864;SDS011;20159;51.072;13.526;2023-06-26T00:56:31;6.57;;;5.10;;
33864;SDS011;20159;51.072;13.526;2023-06-26T00:58:57;6.13;;;5.30;;
33864;SDS011;20159;51.072;13.526;2023-06-26T01:01:26;6.45;;;5.38;;
33864;SDS011;20159;51.072;13.526;2023-06-26T01:03:51;5.72;;;5.00;;
33864;SDS011;20159;51.072;13.526;2023-06-26T01:06:19;6.82;;;5.20;;
33864;SDS011;20159;51.072;13.526;2023-06-26T01:08:46;8.52;;;5.90;;
33864;SDS011;20159;51.072;13.526;2023-06-26T01:11:13;6.55;;;5.75;;
33864;SDS011;20159;51.072;13.526;2023-06-26T01:13:44;7.78;;;5.97;;
33864;SDS011;20159;51.072;13.526;2023-06-26T01:16:15;7.65;;;5.65;;
33864;SDS011;20159;51.072;13.526;2023-06-26T01:18:44;6.00;;;5.32;;
33864;SDS011;20159;51.072;13.526;2023-06-26T01:21:11;8.30;;;5.38;;
33864;SDS011;20159;51.072;13.526;2023-06-26T01:23:54;5.93;;;5.18;;
33864;SDS011;20159;51.072;13.526;2023-06-26T01:26:30;8.02;;;5.22;;
33864;SDS011;20159;51.072;13.526;2023-06-26T01:29:00;6.75;;;5.32;;
33864;SDS011;20159;51.072;13.526;2023-06-26T01:31:28;7.72;;;5.78;;
33864;SDS011;20159;51.072;13.526;2023-06-26T01:33:55;7.28;;;5.55;;
33864;SDS011;20159;51.072;13.526;2023-06-26T01:36:26;7.63;;;5.60;;
33864;SDS011;20159;51.072;13.526;2023-06-26T01:38:52;7.60;;;5.90;;
33864;SDS011;20159;51.072;13.526;2023-06-26T01:41:18;6.53;;;5.43;;
33864;SDS011;20159;51.072;13.526;2023-06-26T01:46:54;7.13;;;5.68;;
33864;SDS011;20159;51.072;13.526;2023-06-26T01:49:33;10.15;;;5.80;;
33864;SDS011;20159;51.072;13.526;2023-06-26T01:52:32;6.90;;;5.32;;
33864;SDS011;20159;51.072;13.526;2023-06-26T01:55:15;6.63;;;5.60;;
33864;SDS011;20159;51.072;13.526;2023-06-26T01:57:47;6.75;;;5.38;;
33864;SDS011;20159;51.072;13.526;2023-06-26T02:00:14;7.18;;;5.40;;
33864;SDS011;20159;51.072;13.526;2023-06-26T02:02:43;8.45;;;5.68;;
33864;SDS011;20159;51.072;13.526;2023-06-26T02:05:09;6.05;;;5.45;;
33864;SDS011;20159;51.072;13.526;2023-06-26T02:07:35;7.65;;;5.80;;
33864;SDS011;20159;51.072;13.526;2023-06-26T02:10:01;6.07;;;5.47;;
33864;SDS011;20159;51.072;13.526;2023-06-26T02:12:27;7.43;;;5.38;;
33864;SDS011;20159;51.072;13.526;2023-06-26T02:14:53;6.57;;;5.38;;
33864;SDS011;20159;51.072;13.526;2023-06-26T02:17:18;6.45;;;5.45;;
33864;SDS011;20159;51.072;13.526;2023-06-26T02:19:47;7.38;;;5.50;;
33864;SDS011;20159;51.072;13.526;2023-06-26T02:22:16;8.48;;;5.43;;
33864;SDS011;20159;51.072;13.526;2023-06-26T02:24:42;6.72;;;5.20;;
33864;SDS011;20159;51.072;13.526;2023-06-26T02:27:08;7.70;;;5.68;;
33864;SDS011;20159;51.072;13.526;2023-06-26T02:29:34;6.65;;;5.43;;
33864;SDS011;20159;51.072;13.526;2023-06-26T02:32:02;7.68;;;5.65;;
33864;SDS011;20159;51.072;13.526;2023-06-26T02:34:28;5.90;;;4.85;;
33864;SDS011;20159;51.072;13.526;2023-06-26T02:36:57;7.82;;;5.90;;
33864;SDS011;20159;51.072;13.526;2023-06-26T02:39:23;7.30;;;5.72;;
33864;SDS011;20159;51.072;13.526;2023-06-26T02:41:49;7.35;;;6.05;;
33864;SDS011;20159;51.072;13.526;2023-06-26T02:44:15;6.50;;;5.90;;
33864;SDS011;20159;51.072;13.526;2023-06-26T02:46:43;6.30;;;5.47;;
33864;SDS011;20159;51.072;13.526;2023-06-26T02:49:10;9.13;;;5.70;;
33864;SDS011;20159;51.072;13.526;2023-06-26T02:51:35;9.32;;;6.22;;
33864;SDS011;20159;51.072;13.526;2023-06-26T02:54:01;8.80;;;5.93;;
33864;SDS011;20159;51.072;13.526;2023-06-26T02:56:27;6.40;;;5.75;;
33864;SDS011;20159;51.072;13.526;2023-06-26T02:58:54;7.60;;;5.57;;
33864;SDS011;20159;51.072;13.526;2023-06-26T03:01:22;8.43;;;5.35;;
33864;SDS011;20159;51.072;13.526;2023-06-26T03:03:48;7.22;;;5.57;;
33864;SDS011;20159;51.072;13.526;2023-06-26T03:06:13;8.25;;;6.13;;
33864;SDS011;20159;51.072;13.526;2023-06-26T03:08:40;7.10;;;5.80;;
33864;SDS011;20159;51.072;13.526;2023-06-26T03:11:06;6.13;;;5.22;;
33864;SDS011;20159;51.072;13.526;2023-06-26T03:13:32;7.85;;;5.72;;
33864;SDS011;20159;51.072;13.526;2023-06-26T03:15:59;8.10;;;5.40;;
33864;SDS011;20159;51.072;13.526;2023-06-26T03:18:25;8.55;;;5.93;;
33864;SDS011;20159;51.072;13.526;2023-06-26T03:20:51;6.88;;;5.55;;
33864;SDS011;20159;51.072;13.526;2023-06-26T03:23:19;8.20;;;5.85;;
33864;SDS011;20159;51.072;13.526;2023-06-26T03:25:45;6.80;;;5.50;;
33864;SDS011;20159;51.072;13.526;2023-06-26T03:28:11;7.10;;;5.60;;
33864;SDS011;20159;51.072;13.526;2023-06-26T03:30:36;8.85;;;6.05;;
33864;SDS011;20159;51.072;13.526;2023-06-26T03:33:02;6.43;;;5.47;;
33864;SDS011;20159;51.072;13.526;2023-06-26T03:35:28;8.88;;;5.82;;
33864;SDS011;20159;51.072;13.526;2023-06-26T03:37:53;7.47;;;5.43;;
33864;SDS011;20159;51.072;13.526;2023-06-26T03:40:19;8.02;;;5.65;;
33864;SDS011;20159;51.072;13.526;2023-06-26T03:42:45;7.68;;;5.43;;
33864;SDS011;20159;51.072;13.526;2023-06-26T03:45:10;5.88;;;5.30;;
33864;SDS011;20159;51.072;13.526;2023-06-26T03:47:36;7.30;;;5.25;;
33864;SDS011;20159;51.072;13.526;2023-06-26T03:50:02;6.70;;;5.60;;
33864;SDS011;20159;51.072;13.526;2023-06-26T03:52:27;10.25;;;5.88;;
33864;SDS011;20159;51.072;13.526;2023-06-26T03:54:55;7.72;;;6.00;;
33864;SDS011;20159;51.072;13.526;2023-06-26T03:57:24;9.48;;;5.32;;
33864;SDS011;20159;51.072;13.526;2023-06-26T03:59:51;7.72;;;5.45;;
33864;SDS011;20159;51.072;13.526;2023-06-26T04:02:20;6.05;;;5.10;;
33864;SDS011;20159;51.072;13.526;2023-06-26T04:04:47;8.65;;;5.70;;
33864;SDS011;20159;51.072;13.526;2023-06-26T04:07:13;8.48;;;5.72;;
33864;SDS011;20159;51.072;13.526;2023-06-26T04:09:43;6.78;;;5.25;;
33864;SDS011;20159;51.072;13.526;2023-06-26T04:12:11;6.55;;;5.78;;
33864;SDS011;20159;51.072;13.526;2023-06-26T04:14:37;7.80;;;6.28;;
33864;SDS011;20159;51.072;13.526;2023-06-26T04:17:02;11.10;;;5.82;;
33864;SDS011;20159;51.072;13.526;2023-06-26T04:19:28;7.10;;;6.00;;
33864;SDS011;20159;51.072;13.526;2023-06-26T04:21:54;9.55;;;5.43;;
33864;SDS011;20159;51.072;13.526;2023-06-26T04:24:20;7.85;;;5.50;;
33864;SDS011;20159;51.072;13.526;2023-06-26T04:26:45;6.75;;;5.55;;
33864;SDS011;20159;51.072;13.526;2023-06-26T04:29:11;6.53;;;5.35;;
33864;SDS011;20159;51.072;13.526;2023-06-26T04:31:36;6.28;;;4.88;;
33864;SDS011;20159;51.072;13.526;2023-06-26T04:34:04;8.07;;;5.45;;
33864;SDS011;20159;51.072;13.526;2023-06-26T04:36:32;6.70;;;5.18;;
33864;SDS011;20159;51.072;13.526;2023-06-26T04:39:03;7.15;;;5.63;;
33864;SDS011;20159;51.072;13.526;2023-06-26T04:41:29;7.68;;;5.47;;
33864;SDS011;20159;51.072;13.526;2023-06-26T04:43:55;9.10;;;5.35;;
33864;SDS011;20159;51.072;13.526;2023-06-26T04:46:20;6.97;;;5.35;;
33864;SDS011;20159;51.072;13.526;2023-06-26T04:48:46;8.30;;;5.00;;
33864;SDS011;20159;51.072;13.526;2023-06-26T04:51:11;6.25;;;4.60;;
33864;SDS011;20159;51.072;13.526;2023-06-26T04:53:37;5.85;;;5.25;;
33864;SDS011;20159;51.072;13.526;2023-06-26T04:56:02;6.80;;;4.97;;
33864;SDS011;20159;51.072;13.526;2023-06-26T04:58:28;5.75;;;5.00;;
33864;SDS011;20159;51.072;13.526;2023-06-26T05:00:54;6.25;;;4.70;;
33864;SDS011;20159;51.072;13.526;2023-06-26T05:03:19;7.25;;;5.05;;
33864;SDS011;20159;51.072;13.526;2023-06-26T05:05:45;5.40;;;4.90;;
33864;SDS011;20159;51.072;13.526;2023-06-26T05:08:14;5.55;;;4.70;;
33864;SDS011;20159;51.072;13.526;2023-06-26T05:10:41;5.25;;;4.75;;
33864;SDS011;20159;51.072;13.526;2023-06-26T05:13:06;4.90;;;4.40;;
33864;SDS011;20159;51.072;13.526;2023-06-26T05:15:32;4.72;;;4.32;;
33864;SDS011;20159;51.072;13.526;2023-06-26T05:17:57;5.80;;;4.85;;
33864;SDS011;20159;51.072;13.526;2023-06-26T05:20:23;5.28;;;4.32;;
33864;SDS011;20159;51.072;13.526;2023-06-26T05:22:49;5.53;;;4.72;;
33864;SDS011;20159;51.072;13.526;2023-06-26T05:25:15;4.93;;;4.43;;
33864;SDS011;20159;51.072;13.526;2023-06-26T05:27:41;5.50;;;4.95;;
33864;SDS011;20159;51.072;13.526;2023-06-26T05:30:07;4.47;;;4.07;;
33864;SDS011;20159;51.072;13.526;2023-06-26T05:32:34;5.15;;;4.30;;
33864;SDS011;20159;51.072;13.526;2023-06-26T05:35:01;4.60;;;4.20;;
33864;SDS011;20159;51.072;13.526;2023-06-26T05:37:28;4.55;;;4.10;;
33864;SDS011;20159;51.072;13.526;2023-06-26T05:39:55;4.85;;;4.35;;
33864;SDS011;20159;51.072;13.526;2023-06-26T05:42:21;4.57;;;3.63;;
33864;SDS011;20159;51.072;13.526;2023-06-26T05:44:47;4.70;;;3.65;;
33864;SDS011;20159;51.072;13.526;2023-06-26T05:47:12;3.85;;;3.45;;
33864;SDS011;20159;51.072;13.526;2023-06-26T05:49:38;5.00;;;3.30;;
33864;SDS011;20159;51.072;13.526;2023-06-26T05:52:04;3.75;;;3.35;;
33864;SDS011;20159;51.072;13.526;2023-06-26T05:54:29;3.97;;;3.40;;
33864;SDS011;20159;51.072;13.526;2023-06-26T05:56:58;3.42;;;3.13;;
33864;SDS011;20159;51.072;13.526;2023-06-26T05:59:24;3.97;;;3.15;;
33864;SDS011;20159;51.072;13.526;2023-06-26T06:01:51;3.30;;;3.00;;
33864;SDS011;20159;51.072;13.526;2023-06-26T06:04:17;4.70;;;3.20;;
33864;SDS011;20159;51.072;13.526;2023-06-26T06:06:42;3.50;;;3.20;;
33864;SDS011;20159;51.072;13.526;2023-06-26T06:09:08;3.35;;;2.90;;
33864;SDS011;20159;51.072;13.526;2023-06-26T06:11:33;4.68;;;3.22;;
33864;SDS011;20159;51.072;13.526;2023-06-26T06:13:59;4.57;;;3.25;;
33864;SDS011;20159;51.072;13.526;2023-06-26T06:16:25;4.55;;;3.10;;
33864;SDS011;20159;51.072;13.526;2023-06-26T06:18:51;3.55;;;3.03;;
33864;SDS011;20159;51.072;13.526;2023-06-26T06:21:16;2.97;;;2.70;;
33864;SDS011;20159;51.072;13.526;2023-06-26T06:23:42;3.70;;;3.30;;
33864;SDS011;20159;51.072;13.526;2023-06-26T06:26:08;3.85;;;2.95;;
33864;SDS011;20159;51.072;13.526;2023-06-26T06:28:33;2.97;;;2.60;;
33864;SDS011;20159;51.072;13.526;2023-06-26T06:30:58;2.95;;;2.67;;
33864;SDS011;20159;51.072;13.526;2023-06-26T06:33:24;3.42;;;2.75;;
33864;SDS011;20159;51.072;13.526;2023-06-26T06:35:49;3.00;;;2.70;;
33864;SDS011;20159;51.072;13.526;2023-06-26T06:38:15;2.60;;;2.40;;
33864;SDS011;20159;51.072;13.526;2023-06-26T06:40:40;2.85;;;2.65;;
33864;SDS011;20159;51.072;13.526;2023-06-26T06:43:06;3.20;;;2.88;;
33864;SDS011;20159;51.072;13.526;2023-06-26T06:45:31;3.00;;;2.78;;
33864;SDS011;20159;51.072;13.526;2023-06-26T06:47:57;2.83;;;2.50;;
33864;SDS011;20159;51.072;13.526;2023-06-26T06:50:22;2.53;;;2.33;;
33864;SDS011;20159;51.072;13.526;2023-06-26T06:52:48;3.30;;;2.80;;
33864;SDS011;20159;51.072;13.526;2023-06-26T06:55:13;2.88;;;2.67;;
33864;SDS011;20159;51.072;13.526;2023-06-26T06:57:39;3.15;;;2.47;;
33864;SDS011;20159;51.072;13.526;2023-06-26T07:00:06;2.88;;;2.58;;
33864;SDS011;20159;51.072;13.526;2023-06-26T07:02:34;3.13;;;2.83;;
33864;SDS011;20159;51.072;13.526;2023-06-26T07:05:00;3.17;;;2.70;;
33864;SDS011;20159;51.072;13.526;2023-06-26T07:07:28;4.68;;;2.88;;
33864;SDS011;20159;51.072;13.526;2023-06-26T07:09:59;3.35;;;2.90;;
33864;SDS011;20159;51.072;13.526;2023-06-26T07:12:25;3.20;;;2.80;;
33864;SDS011;20159;51.072;13.526;2023-06-26T07:14:50;3.45;;;2.70;;
33864;SDS011;20159;51.072;13.526;2023-06-26T07:17:16;3.28;;;2.83;;
33864;SDS011;20159;51.072;13.526;2023-06-26T07:19:41;3.30;;;3.00;;
33864;SDS011;20159;51.072;13.526;2023-06-26T07:22:07;4.60;;;2.97;;
33864;SDS011;20159;51.072;13.526;2023-06-26T07:24:32;3.03;;;2.72;;
33864;SDS011;20159;51.072;13.526;2023-06-26T07:26:59;3.33;;;2.92;;
33864;SDS011;20159;51.072;13.526;2023-06-26T07:29:25;7.28;;;2.88;;
33864;SDS011;20159;51.072;13.526;2023-06-26T07:31:51;3.20;;;2.83;;
33864;SDS011;20159;51.072;13.526;2023-06-26T07:34:16;3.20;;;2.90;;
33864;SDS011;20159;51.072;13.526;2023-06-26T07:36:42;3.92;;;3.05;;
33864;SDS011;20159;51.072;13.526;2023-06-26T07:39:07;4.30;;;3.90;;
33864;SDS011;20159;51.072;13.526;2023-06-26T07:41:33;4.55;;;2.72;;
33864;SDS011;20159;51.072;13.526;2023-06-26T07:43:58;3.20;;;2.92;;
33864;SDS011;20159;51.072;13.526;2023-06-26T07:46:24;4.55;;;3.50;;
33864;SDS011;20159;51.072;13.526;2023-06-26T07:48:50;3.22;;;2.85;;
33864;SDS011;20159;51.072;13.526;2023-06-26T07:51:15;2.90;;;2.70;;
33864;SDS011;20159;51.072;13.526;2023-06-26T07:53:41;3.20;;;2.80;;
33864;SDS011;20159;51.072;13.526;2023-06-26T07:56:06;3.38;;;2.80;;
33864;SDS011;20159;51.072;13.526;2023-06-26T07:58:32;4.00;;;3.15;;
33864;SDS011;20159;51.072;13.526;2023-06-26T08:00:57;5.18;;;2.92;;
33864;SDS011;20159;51.072;13.526;2023-06-26T08:03:23;3.38;;;2.97;;
33864;SDS011;20159;51.072;13.526;2023-06-26T08:05:49;3.42;;;3.13;;
33864;SDS011;20159;51.072;13.526;2023-06-26T08:08:14;3.30;;;3.00;;
33864;SDS011;20159;51.072;13.526;2023-06-26T08:10:40;3.55;;;3.25;;
33864;SDS011;20159;51.072;13.526;2023-06-26T08:13:06;3.25;;;2.95;;
33864;SDS011;20159;51.072;13.526;2023-06-26T08:15:31;3.35;;;3.05;;
33864;SDS011;20159;51.072;13.526;2023-06-26T08:17:57;5.20;;;3.08;;
33864;SDS011;20159;51.072;13.526;2023-06-26T08:20:22;3.00;;;2.70;;
33864;SDS011;20159;51.072;13.526;2023-06-26T08:22:48;3.75;;;3.00;;
33864;SDS011;20159;51.072;13.526;2023-06-26T08:25:16;3.25;;;2.75;;
33864;SDS011;20159;51.072;13.526;2023-06-26T08:27:42;3.40;;;3.10;;
33864;SDS011;20159;51.072;13.526;2023-06-26T08:30:07;4.13;;;2.85;;
33864;SDS011;20159;51.072;13.526;2023-06-26T08:32:33;3.20;;;2.90;;
33864;SDS011;20159;51.072;13.526;2023-06-26T08:34:59;3.17;;;2.88;;
33864;SDS011;20159;51.072;13.526;2023-06-26T08:37:24;3.40;;;3.10;;
33864;SDS011;20159;51.072;13.526;2023-06-26T08:39:50;3.20;;;2.90;;
33864;SDS011;20159;51.072;13.526;2023-06-26T08:45:23;3.28;;;2.97;;
33864;SDS011;20159;51.072;13.526;2023-06-26T08:48:00;3.58;;;2.85;;
33864;SDS011;20159;51.072;13.526;2023-06-26T08:50:27;3.33;;;2.90;;
33864;SDS011;20159;51.072;13.526;2023-06-26T08:53:08;4.80;;;3.03;;
33864;SDS011;20159;51.072;13.526;2023-06-26T08:55:48;3.05;;;2.80;;
33864;SDS011;20159;51.072;13.526;2023-06-26T08:58:16;3.13;;;2.83;;
33864;SDS011;20159;51.072;13.526;2023-06-26T09:00:42;3.42;;;3.13;;
33864;SDS011;20159;51.072;13.526;2023-06-26T09:03:08;3.38;;;3.08;;
33864;SDS011;20159;51.072;13.526;2023-06-26T09:05:35;3.30;;;2.78;;
33864;SDS011;20159;51.072;13.526;2023-06-26T09:08:01;3.60;;;3.30;;
33864;SDS011;20159;51.072;13.526;2023-06-26T09:10:26;4.43;;;3.42;;
33864;SDS011;20159;51.072;13.526;2023-06-26T09:12:55;3.35;;;3.05;;
33864;SDS011;20159;51.072;13.526;2023-06-26T09:15:22;4.35;;;3.45;;
33864;SDS011;20159;51.072;13.526;2023-06-26T09:17:48;3.40;;;3.10;;
33864;SDS011;20159;51.072;13.526;2023-06-26T09:20:15;3.42;;;3.13;;
33864;SDS011;20159;51.072;13.526;2023-06-26T09:22:41;3.70;;;3.40;;
33864;SDS011;20159;51.072;13.526;2023-06-26T09:25:08;3.20;;;2.90;;
33864;SDS011;20159;51.072;13.526;2023-06-26T09:27:34;4.22;;;3.50;;
33864;SDS011;20159;51.072;13.526;2023-06-26T09:30:12;3.78;;;3.25;;
33864;SDS011;20159;51.072;13.526;2023-06-26T09:32:43;3.58;;;3.25;;
33864;SDS011;20159;51.072;13.526;2023-06-26T09:35:08;4.28;;;3.17;;
33864;SDS011;20159;51.072;13.526;2023-06-26T09:37:35;3.70;;;3.20;;
33864;SDS011;20159;51.072;13.526;2023-06-26T09:40:01;3.67;;;3.08;;
33864;SDS011;20159;51.072;13.526;2023-06-26T09:42:28;4.25;;;3.03;;
33864;SDS011;20159;51.072;13.526;2023-06-26T09:44:54;5.55;;;3.22;;
33864;SDS011;20159;51.072;13.526;2023-06-26T09:47:20;3.28;;;2.97;;
33864;SDS011;20159;51.072;13.526;2023-06-26T09:49:46;3.50;;;3.20;;
33864;SDS011;20159;51.072;13.526;2023-06-26T09:52:16;3.50;;;3.08;;
33864;SDS011;20159;51.072;13.526;2023-06-26T09:54:42;4.35;;;3.10;;
33864;SDS011;20159;51.072;13.526;2023-06-26T09:57:13;3.40;;;3.10;;
33864;SDS011;20159;51.072;13.526;2023-06-26T09:59:43;3.88;;;3.08;;
33864;SDS011;20159;51.072;13.526;2023-06-26T10:02:10;4.25;;;3.22;;
33864;SDS011;20159;51.072;13.526;2023-06-26T10:04:36;3.75;;;3.38;;
33864;SDS011;20159;51.072;13.526;2023-06-26T10:07:04;5.57;;;3.20;;
33864;SDS011;20159;51.072;13.526;2023-06-26T10:09:31;3.58;;;3.28;;
33864;SDS011;20159;51.072;13.526;2023-06-26T10:14:57;4.25;;;3.10;;
33864;SDS011;20159;51.072;13.526;2023-06-26T10:17:24;3.40;;;3.05;;
33864;SDS011;20159;51.072;13.526;2023-06-26T10:19:55;3.10;;;2.80;;
33864;SDS011;20159;51.072;13.526;2023-06-26T10:22:24;3.20;;;2.90;;
33864;SDS011;20159;51.072;13.526;2023-06-26T10:24:54;7.50;;;3.08;;
33864;SDS011;20159;51.072;13.526;2023-06-26T10:27:24;3.60;;;3.30;;
33864;SDS011;20159;51.072;13.526;2023-06-26T10:29:54;5.75;;;3.13;;
33864;SDS011;20159;51.072;13.526;2023-06-26T10:32:24;3.03;;;2.80;;
33864;SDS011;20159;51.072;13.526;2023-06-26T10:34:51;3.85;;;2.97;;
33864;SDS011;20159;51.072;13.526;2023-06-26T10:37:18;3.58;;;2.95;;
33864;SDS011;20159;51.072;13.526;2023-06-26T10:39:50;3.20;;;2.90;;
33864;SDS011;20159;51.072;13.526;2023-06-26T10:42:19;3.55;;;3.05;;
33864;SDS011;20159;51.072;13.526;2023-06-26T10:44:58;4.32;;;3.10;;
33864;SDS011;20159;51.072;13.526;2023-06-26T10:47:45;3.70;;;3.35;;
33864;SDS011;20159;51.072;13.526;2023-06-26T10:50:28;3.65;;;3.22;;
33864;SDS011;20159;51.072;13.526;2023-06-26T10:55:50;3.30;;;3.00;;
33864;SDS011;20159;51.072;13.526;2023-06-26T11:03:36;3.22;;;2.92;;
33864;SDS011;20159;51.072;13.526;2023-06-26T11:06:08;3.78;;;3.22;;
33864;SDS011;20159;51.072;13.526;2023-06-26T11:11:13;3.28;;;2.75;;
33864;SDS011;20159;51.072;13.526;2023-06-26T11:13:40;3.38;;;2.67;;
33864;SDS011;20159;51.072;13.526;2023-06-26T11:16:06;3.35;;;3.05;;
33864;SDS011;20159;51.072;13.526;2023-06-26T11:18:56;3.80;;;2.72;;
33864;SDS011;20159;51.072;13.526;2023-06-26T11:21:23;3.90;;;3.47;;
33864;SDS011;20159;51.072;13.526;2023-06-26T11:23:49;3.17;;;2.88;;
33864;SDS011;20159;51.072;13.526;2023-06-26T11:26:19;3.30;;;3.00;;
33864;SDS011;20159;51.072;13.526;2023-06-26T11:28:54;3.70;;;3.30;;
33864;SDS011;20159;51.072;13.526;2023-06-26T11:31:28;3.42;;;2.78;;
33864;SDS011;20159;51.072;13.526;2023-06-26T11:33:59;3.40;;;2.85;;
33864;SDS011;20159;51.072;13.526;2023-06-26T11:36:27;4.25;;;3.40;;
33864;SDS011;20159;51.072;13.526;2023-06-26T11:38:53;3.15;;;2.85;;
33864;SDS011;20159;51.072;13.526;2023-06-26T11:41:20;3.30;;;3.00;;
33864;SDS011;20159;51.072;13.526;2023-06-26T11:43:46;3.45;;;2.90;;
33864;SDS011;20159;51.072;13.526;2023-06-26T11:46:11;3.28;;;2.97;;
33864;SDS011;20159;51.072;13.526;2023-06-26T11:48:37;3.53;;;2.75;;
33864;SDS011;20159;51.072;13.526;2023-06-26T11:51:06;3.50;;;2.72;;
33864;SDS011;20159;51.072;13.526;2023-06-26T11:53:32;4.15;;;3.05;;
33864;SDS011;20159;51.072;13.526;2023-06-26T11:56:12;3.93;;;2.80;;
33864;SDS011;20159;51.072;13.526;2023-06-26T12:01:33;7.30;;;3.20;;
33864;SDS011;20159;51.072;13.526;2023-06-26T12:04:03;3.65;;;3.25;;
33864;SDS011;20159;51.072;13.526;2023-06-26T12:06:36;3.45;;;3.15;;
33864;SDS011;20159;51.072;13.526;2023-06-26T12:09:07;3.17;;;2.90;;
33864;SDS011;20159;51.072;13.526;2023-06-26T12:11:37;3.28;;;2.97;;
33864;SDS011;20159;51.072;13.526;2023-06-26T12:14:05;3.72;;;3.30;;
33864;SDS011;20159;51.072;13.526;2023-06-26T12:16:31;3.95;;;2.78;;
33864;SDS011;20159;51.072;13.526;2023-06-26T12:18:59;4.20;;;2.88;;
33864;SDS011;20159;51.072;13.526;2023-06-26T12:24:03;3.25;;;2.95;;
33864;SDS011;20159;51.072;13.526;2023-06-26T12:26:29;3.25;;;2.90;;
33864;SDS011;20159;51.072;13.526;2023-06-26T12:29:02;3.20;;;2.90;;
33864;SDS011;20159;51.072;13.526;2023-06-26T12:31:32;2.90;;;2.63;;
33864;SDS011;20159;51.072;13.526;2023-06-26T12:33:59;3.10;;;2.78;;
33864;SDS011;20159;51.072;13.526;2023-06-26T12:36:25;2.97;;;2.67;;
33864;SDS011;20159;51.072;13.526;2023-06-26T12:38:52;5.07;;;3.05;;
33864;SDS011;20159;51.072;13.526;2023-06-26T12:41:18;3.30;;;3.00;;
33864;SDS011;20159;51.072;13.526;2023-06-26T12:43:45;3.38;;;2.88;;
33864;SDS011;20159;51.072;13.526;2023-06-26T12:46:11;3.55;;;2.70;;
33864;SDS011;20159;51.072;13.526;2023-06-26T12:48:39;3.60;;;3.13;;
33864;SDS011;20159;51.072;13.526;2023-06-26T12:53:37;3.03;;;2.72;;
33864;SDS011;20159;51.072;13.526;2023-06-26T12:56:04;3.97;;;2.80;;
33864;SDS011;20159;51.072;13.526;2023-06-26T12:58:30;3.72;;;3.28;;
33864;SDS011;20159;51.072;13.526;2023-06-26T13:00:56;3.22;;;2.88;;
33864;SDS011;20159;51.072;13.526;2023-06-26T13:03:22;3.47;;;2.90;;
33864;SDS011;20159;51.072;13.526;2023-06-26T13:05:48;2.90;;;2.60;;
33864;SDS011;20159;51.072;13.526;2023-06-26T13:08:13;2.75;;;2.55;;
33864;SDS011;20159;51.072;13.526;2023-06-26T13:10:42;2.78;;;2.58;;
33864;SDS011;20159;51.072;13.526;2023-06-26T13:13:09;3.38;;;3.00;;
33864;SDS011;20159;51.072;13.526;2023-06-26T13:15:35;2.97;;;2.67;;
33864;SDS011;20159;51.072;13.526;2023-06-26T13:18:01;4.43;;;2.67;;
33864;SDS011;20159;51.072;13.526;2023-06-26T13:20:28;3.45;;;2.92;;
33864;SDS011;20159;51.072;13.526;2023-06-26T13:22:54;3.60;;;3.00;;
33864;SDS011;20159;51.072;13.526;2023-06-26T13:25:20;3.22;;;2.92;;
33864;SDS011;20159;51.072;13.526;2023-06-26T13:27:46;3.80;;;3.40;;
33864;SDS011;20159;51.072;13.526;2023-06-26T13:30:13;3.13;;;2.83;;
33864;SDS011;20159;51.072;13.526;2023-06-26T13:32:39;3.45;;;3.13;;
33864;SDS011;20159;51.072;13.526;2023-06-26T13:35:04;3.28;;;2.92;;
33864;SDS011;20159;51.072;13.526;2023-06-26T13:37:31;2.90;;;2.70;;
33864;SDS011;20159;51.072;13.526;2023-06-26T13:39:57;3.38;;;3.08;;
33864;SDS011;20159;51.072;13.526;2023-06-26T13:42:24;3.28;;;2.97;;
33864;SDS011;20159;51.072;13.526;2023-06-26T13:44:49;3.45;;;3.15;;
33864;SDS011;20159;51.072;13.526;2023-06-26T13:47:15;3.20;;;2.90;;
33864;SDS011;20159;51.072;13.526;2023-06-26T13:49:41;3.92;;;3.47;;
33864;SDS011;20159;51.072;13.526;2023-06-26T13:52:07;3.53;;;3.22;;
33864;SDS011;20159;51.072;13.526;2023-06-26T13:54:34;3.53;;;3.22;;
33864;SDS011;20159;51.072;13.526;2023-06-26T13:57:01;3.22;;;2.92;;
33864;SDS011;20159;51.072;13.526;2023-06-26T13:59:27;3.33;;;3.03;;
33864;SDS011;20159;51.072;13.526;2023-06-26T14:01:53;3.22;;;2.92;;
33864;SDS011;20159;51.072;13.526;2023-06-26T14:04:19;3.15;;;2.85;;
33864;SDS011;20159;51.072;13.526;2023-06-26T14:06:44;3.10;;;2.65;;
33864;SDS011;20159;51.072;13.526;2023-06-26T14:09:10;5.53;;;3.17;;
33864;SDS011;20159;51.072;13.526;2023-06-26T14:11:36;3.40;;;3.10;;
33864;SDS011;20159;51.072;13.526;2023-06-26T14:14:01;5.07;;;3.20;;
33864;SDS011;20159;51.072;13.526;2023-06-26T14:16:27;3.65;;;3.20;;
33864;SDS011;20159;51.072;13.526;2023-06-26T14:18:53;3.55;;;3.13;;
33864;SDS011;20159;51.072;13.526;2023-06-26T14:21:19;3.78;;;3.40;;
33864;SDS011;20159;51.072;13.526;2023-06-26T14:23:45;4.07;;;3.67;;
33864;SDS011;20159;51.072;13.526;2023-06-26T14:26:10;3.80;;;3.50;;
33864;SDS011;20159;51.072;13.526;2023-06-26T14:28:36;3.90;;;3.50;;
33864;SDS011;20159;51.072;13.526;2023-06-26T14:31:03;3.50;;;3.20;;
33864;SDS011;20159;51.072;13.526;2023-06-26T14:33:31;4.18;;;3.63;;
33864;SDS011;20159;51.072;13.526;2023-06-26T14:35:56;3.65;;;3.35;;
33864;SDS011;20159;51.072;13.526;2023-06-26T14:38:22;3.60;;;3.30;;
33864;SDS011;20159;51.072;13.526;2023-06-26T14:40:47;4.88;;;3.50;;
33864;SDS011;20159;51.072;13.526;2023-06-26T14:43:13;3.95;;;3.63;;
33864;SDS011;20159;51.072;13.526;2023-06-26T14:45:38;3.67;;;3.28;;
33864;SDS011;20159;51.072;13.526;2023-06-26T14:48:04;4.00;;;3.47;;
33864;SDS011;20159;51.072;13.526;2023-06-26T14:50:29;5.20;;;3.60;;
33864;SDS011;20159;51.072;13.526;2023-06-26T14:52:55;5.38;;;3.20;;
33864;SDS011;20159;51.072;13.526;2023-06-26T14:55:20;3.42;;;3.10;;
33864;SDS011;20159;51.072;13.526;2023-06-26T14:57:46;3.72;;;3.42;;
33864;SDS011;20159;51.072;13.526;2023-06-26T15:00:12;3.95;;;3.60;;